sensor_id;sensor_type;location;lat;lon;timestamp;temperature;humidity
64226;DHT22;50545;56.064;26.178;2023-05-07T00:00:22;-2.10;99.90
64226;DHT22;50545;56.064;26.178;2023-05-07T00:02:49;-2.10;99.90
64226;DHT22;50545;56.064;26.178;2023-05-07T00:05:17;-2.20;99.90
64226;DHT22;50545;56.064;26.178;2023-05-07T00:07:45;-2.20;99.90
64226;DHT22;50545;56.064;26.178;2023-05-07T00:10:12;-2.20;99.90
64226;DHT22;50545;56.064;26.178;2023-05-07T00:12:40;-2.20;99.90
64226;DHT22;50545;56.064;26.178;2023-05-07T00:15:08;-2.20;99.90
64226;DHT22;50545;56.064;26.178;2023-05-07T00:17:36;-2.20;99.90
64226;DHT22;50545;56.064;26.178;2023-05-07T00:20:04;-2.20;99.90
64226;DHT22;50545;56.064;26.178;2023-05-07T00:22:32;-2.20;99.90
64226;DHT22;50545;56.064;26.178;2023-05-07T00:24:59;-2.20;99.90
64226;DHT22;50545;56.064;26.178;2023-05-07T00:27:27;-2.30;99.90
64226;DHT22;50545;56.064;26.178;2023-05-07T00:29:54;-2.30;99.90
64226;DHT22;50545;56.064;26.178;2023-05-07T00:32:21;-2.30;99.90
64226;DHT22;50545;56.064;26.178;2023-05-07T00:34:48;-2.40;99.90
64226;DHT22;50545;56.064;26.178;2023-05-07T00:37:17;-2.40;99.90
64226;DHT22;50545;56.064;26.178;2023-05-07T00:39:45;-2.50;99.90
64226;DHT22;50545;56.064;26.178;2023-05-07T00:42:12;-2.50;99.90
64226;DHT22;50545;56.064;26.178;2023-05-07T00:44:39;-2.50;99.90
64226;DHT22;50545;56.064;26.178;2023-05-07T00:47:07;-2.60;99.90
64226;DHT22;50545;56.064;26.178;2023-05-07T00:49:52;-2.60;99.90
64226;DHT22;50545;56.064;26.178;2023-05-07T00:52:21;-2.60;99.90
64226;DHT22;50545;56.064;26.178;2023-05-07T00:54:50;-2.60;99.90
64226;DHT22;50545;56.064;26.178;2023-05-07T00:57:19;-2.60;99.90
64226;DHT22;50545;56.064;26.178;2023-05-07T00:59:48;-2.70;99.90
64226;DHT22;50545;56.064;26.178;2023-05-07T01:02:16;-2.70;99.90
64226;DHT22;50545;56.064;26.178;2023-05-07T01:04:44;-2.70;99.90
64226;DHT22;50545;56.064;26.178;2023-05-07T01:07:11;-2.70;99.90
64226;DHT22;50545;56.064;26.178;2023-05-07T01:09:39;-2.70;99.90
64226;DHT22;50545;56.064;26.178;2023-05-07T01:12:07;-2.80;99.90
64226;DHT22;50545;56.064;26.178;2023-05-07T01:14:35;-2.80;99.90
64226;DHT22;50545;56.064;26.178;2023-05-07T01:17:02;-2.80;99.90
64226;DHT22;50545;56.064;26.178;2023-05-07T01:19:30;-2.80;99.90
64226;DHT22;50545;56.064;26.178;2023-05-07T01:22:02;-2.90;99.90
64226;DHT22;50545;56.064;26.178;2023-05-07T01:24:31;-2.90;99.90
64226;DHT22;50545;56.064;26.178;2023-05-07T01:26:59;-2.90;99.90
64226;DHT22;50545;56.064;26.178;2023-05-07T01:29:28;-2.90;99.90
64226;DHT22;50545;56.064;26.178;2023-05-07T01:31:59;-2.90;99.90
64226;DHT22;50545;56.064;26.178;2023-05-07T01:34:28;-2.90;99.90
64226;DHT22;50545;56.064;26.178;2023-05-07T01:36:58;-2.90;99.90
64226;DHT22;50545;56.064;26.178;2023-05-07T01:39:27;-2.90;99.90
64226;DHT22;50545;56.064;26.178;2023-05-07T01:41:56;-3.00;99.90
64226;DHT22;50545;56.064;26.178;2023-05-07T01:44:23;-3.00;99.90
64226;DHT22;50545;56.064;26.178;2023-05-07T01:46:51;-3.00;99.90
64226;DHT22;50545;56.064;26.178;2023-05-07T01:49:19;-3.00;99.90
64226;DHT22;50545;56.064;26.178;2023-05-07T01:51:46;-3.00;99.90
64226;DHT22;50545;56.064;26.178;2023-05-07T01:54:14;-3.10;99.90
64226;DHT22;50545;56.064;26.178;2023-05-07T01:56:41;-3.10;99.90
64226;DHT22;50545;56.064;26.178;2023-05-07T01:59:08;-3.10;99.90
64226;DHT22;50545;56.064;26.178;2023-05-07T02:01:36;-3.20;99.90
64226;DHT22;50545;56.064;26.178;2023-05-07T02:04:03;-3.20;99.90
64226;DHT22;50545;56.064;26.178;2023-05-07T02:06:31;-3.20;99.90
64226;DHT22;50545;56.064;26.178;2023-05-07T02:08:58;-3.20;99.90
64226;DHT22;50545;56.064;26.178;2023-05-07T02:11:25;-3.20;99.90
64226;DHT22;50545;56.064;26.178;2023-05-07T02:13:52;-3.30;99.90
64226;DHT22;50545;56.064;26.178;2023-05-07T02:16:20;-3.30;99.90
64226;DHT22;50545;56.064;26.178;2023-05-07T02:18:48;-3.30;99.90
64226;DHT22;50545;56.064;26.178;2023-05-07T02:21:15;-3.40;99.90
64226;DHT22;50545;56.064;26.178;2023-05-07T02:23:42;-3.40;99.90
64226;DHT22;50545;56.064;26.178;2023-05-07T02:26:10;-3.40;99.90
64226;DHT22;50545;56.064;26.178;2023-05-07T02:28:38;-3.40;99.90
64226;DHT22;50545;56.064;26.178;2023-05-07T02:31:05;-3.40;99.90
64226;DHT22;50545;56.064;26.178;2023-05-07T02:33:33;-3.40;99.90
64226;DHT22;50545;56.064;26.178;2023-05-07T02:36:09;-3.40;99.90
64226;DHT22;50545;56.064;26.178;2023-05-07T02:38:37;-3.40;99.90
64226;DHT22;50545;56.064;26.178;2023-05-07T02:41:04;-3.40;99.90
64226;DHT22;50545;56.064;26.178;2023-05-07T02:43:32;-3.40;99.90
64226;DHT22;50545;56.064;26.178;2023-05-07T02:46:05;-3.40;99.90
64226;DHT22;50545;56.064;26.178;2023-05-07T02:48:33;-3.50;99.90
64226;DHT22;50545;56.064;26.178;2023-05-07T02:51:01;-3.40;99.90
64226;DHT22;50545;56.064;26.178;2023-05-07T02:53:28;-3.40;99.90
64226;DHT22;50545;56.064;26.178;2023-05-07T02:55:57;-3.40;99.90
64226;DHT22;50545;56.064;26.178;2023-05-07T02:58:25;-3.40;99.90
64226;DHT22;50545;56.064;26.178;2023-05-07T03:00:53;-3.30;99.90
64226;DHT22;50545;56.064;26.178;2023-05-07T03:03:21;-3.30;99.90
64226;DHT22;50545;56.064;26.178;2023-05-07T03:05:49;-3.30;99.90
64226;DHT22;50545;56.064;26.178;2023-05-07T03:08:16;-3.30;99.90
64226;DHT22;50545;56.064;26.178;2023-05-07T03:10:43;-3.30;99.90
64226;DHT22;50545;56.064;26.178;2023-05-07T03:13:11;-3.30;99.90
64226;DHT22;50545;56.064;26.178;2023-05-07T03:15:38;-3.20;99.90
64226;DHT22;50545;56.064;26.178;2023-05-07T03:18:05;-3.20;99.90
64226;DHT22;50545;56.064;26.178;2023-05-07T03:20:33;-3.20;99.90
64226;DHT22;50545;56.064;26.178;2023-05-07T03:23:01;-3.10;99.90
64226;DHT22;50545;56.064;26.178;2023-05-07T03:25:28;-3.10;99.90
64226;DHT22;50545;56.064;26.178;2023-05-07T03:27:57;-3.00;99.90
64226;DHT22;50545;56.064;26.178;2023-05-07T03:30:24;-3.00;99.90
64226;DHT22;50545;56.064;26.178;2023-05-07T03:32:51;-2.90;99.90
64226;DHT22;50545;56.064;26.178;2023-05-07T03:35:19;-2.90;99.90
64226;DHT22;50545;56.064;26.178;2023-05-07T03:37:46;-2.80;99.90
64226;DHT22;50545;56.064;26.178;2023-05-07T03:40:13;-2.80;99.90
64226;DHT22;50545;56.064;26.178;2023-05-07T03:42:40;-2.70;99.90
64226;DHT22;50545;56.064;26.178;2023-05-07T03:45:08;-2.60;99.90
64226;DHT22;50545;56.064;26.178;2023-05-07T03:47:36;-2.60;99.90
64226;DHT22;50545;56.064;26.178;2023-05-07T03:50:03;-2.50;99.90
64226;DHT22;50545;56.064;26.178;2023-05-07T03:52:31;-2.50;99.90
64226;DHT22;50545;56.064;26.178;2023-05-07T03:54:58;-2.40;99.90
64226;DHT22;50545;56.064;26.178;2023-05-07T03:57:25;-2.30;99.90
64226;DHT22;50545;56.064;26.178;2023-05-07T03:59:52;-2.30;99.90
64226;DHT22;50545;56.064;26.178;2023-05-07T04:02:19;-2.20;99.90
64226;DHT22;50545;56.064;26.178;2023-05-07T04:04:48;-2.10;99.90
64226;DHT22;50545;56.064;26.178;2023-05-07T04:07:16;-2.00;99.90
64226;DHT22;50545;56.064;26.178;2023-05-07T04:09:43;-1.90;99.90
64226;DHT22;50545;56.064;26.178;2023-05-07T04:12:11;-1.80;99.90
64226;DHT22;50545;56.064;26.178;2023-05-07T04:14:38;-1.70;99.90
64226;DHT22;50545;56.064;26.178;2023-05-07T04:17:05;-1.70;99.90
64226;DHT22;50545;56.064;26.178;2023-05-07T04:19:34;-1.60;99.90
64226;DHT22;50545;56.064;26.178;2023-05-07T04:22:01;-1.40;99.90
64226;DHT22;50545;56.064;26.178;2023-05-07T04:24:31;-1.30;99.90
64226;DHT22;50545;56.064;26.178;2023-05-07T04:27:00;-1.20;99.90
64226;DHT22;50545;56.064;26.178;2023-05-07T04:29:27;-1.10;99.90
64226;DHT22;50545;56.064;26.178;2023-05-07T04:31:55;-1.00;99.90
64226;DHT22;50545;56.064;26.178;2023-05-07T04:34:23;-0.90;99.90
64226;DHT22;50545;56.064;26.178;2023-05-07T04:36:50;-0.70;99.90
64226;DHT22;50545;56.064;26.178;2023-05-07T04:39:17;-0.60;99.90
64226;DHT22;50545;56.064;26.178;2023-05-07T04:41:44;-0.50;99.90
64226;DHT22;50545;56.064;26.178;2023-05-07T04:44:12;-0.30;99.90
64226;DHT22;50545;56.064;26.178;2023-05-07T04:46:39;-0.20;99.90
64226;DHT22;50545;56.064;26.178;2023-05-07T04:49:06;-0.10;99.90
64226;DHT22;50545;56.064;26.178;2023-05-07T04:51:34;0.10;99.90
64226;DHT22;50545;56.064;26.178;2023-05-07T04:54:01;0.20;99.90
64226;DHT22;50545;56.064;26.178;2023-05-07T04:56:29;0.40;99.90
64226;DHT22;50545;56.064;26.178;2023-05-07T04:58:56;0.50;99.90
64226;DHT22;50545;56.064;26.178;2023-05-07T05:01:24;0.70;99.90
64226;DHT22;50545;56.064;26.178;2023-05-07T05:03:51;0.80;99.90
64226;DHT22;50545;56.064;26.178;2023-05-07T05:06:18;1.00;99.90
64226;DHT22;50545;56.064;26.178;2023-05-07T05:08:45;1.10;99.90
64226;DHT22;50545;56.064;26.178;2023-05-07T05:11:13;1.30;99.90
64226;DHT22;50545;56.064;26.178;2023-05-07T05:13:40;1.40;99.90
64226;DHT22;50545;56.064;26.178;2023-05-07T05:16:08;1.60;99.90
64226;DHT22;50545;56.064;26.178;2023-05-07T05:18:35;1.70;99.90
64226;DHT22;50545;56.064;26.178;2023-05-07T05:21:02;1.90;99.90
64226;DHT22;50545;56.064;26.178;2023-05-07T05:23:29;2.00;99.90
64226;DHT22;50545;56.064;26.178;2023-05-07T05:25:57;2.10;99.90
64226;DHT22;50545;56.064;26.178;2023-05-07T05:28:25;2.20;99.90
64226;DHT22;50545;56.064;26.178;2023-05-07T05:30:52;2.40;99.90
64226;DHT22;50545;56.064;26.178;2023-05-07T05:33:19;2.50;99.90
64226;DHT22;50545;56.064;26.178;2023-05-07T05:35:46;2.60;99.90
64226;DHT22;50545;56.064;26.178;2023-05-07T05:38:14;2.80;99.90
64226;DHT22;50545;56.064;26.178;2023-05-07T05:40:41;2.90;99.60
64226;DHT22;50545;56.064;26.178;2023-05-07T05:43:08;3.00;99.00
64226;DHT22;50545;56.064;26.178;2023-05-07T05:45:35;3.10;98.10
64226;DHT22;50545;56.064;26.178;2023-05-07T05:48:03;3.30;97.70
64226;DHT22;50545;56.064;26.178;2023-05-07T05:50:30;3.40;97.30
64226;DHT22;50545;56.064;26.178;2023-05-07T05:52:57;3.50;95.40
64226;DHT22;50545;56.064;26.178;2023-05-07T05:55:26;3.60;95.60
64226;DHT22;50545;56.064;26.178;2023-05-07T05:57:53;3.80;95.40
64226;DHT22;50545;56.064;26.178;2023-05-07T06:00:21;3.90;95.10
64226;DHT22;50545;56.064;26.178;2023-05-07T06:02:51;4.00;94.40
64226;DHT22;50545;56.064;26.178;2023-05-07T06:05:18;4.20;94.60
64226;DHT22;50545;56.064;26.178;2023-05-07T06:07:46;4.30;94.20
64226;DHT22;50545;56.064;26.178;2023-05-07T06:10:13;4.40;93.10
64226;DHT22;50545;56.064;26.178;2023-05-07T06:12:40;4.50;93.10
64226;DHT22;50545;56.064;26.178;2023-05-07T06:15:07;4.60;92.00
64226;DHT22;50545;56.064;26.178;2023-05-07T06:17:35;4.70;90.10
64226;DHT22;50545;56.064;26.178;2023-05-07T06:20:02;4.70;90.00
64226;DHT22;50545;56.064;26.178;2023-05-07T06:22:30;4.90;89.90
64226;DHT22;50545;56.064;26.178;2023-05-07T06:24:57;4.90;90.50
64226;DHT22;50545;56.064;26.178;2023-05-07T06:27:24;5.10;90.40
64226;DHT22;50545;56.064;26.178;2023-05-07T06:29:51;5.20;90.30
64226;DHT22;50545;56.064;26.178;2023-05-07T06:32:19;5.30;88.00
64226;DHT22;50545;56.064;26.178;2023-05-07T06:34:46;5.50;88.40
64226;DHT22;50545;56.064;26.178;2023-05-07T06:37:13;5.60;89.20
64226;DHT22;50545;56.064;26.178;2023-05-07T06:39:40;5.80;86.90
64226;DHT22;50545;56.064;26.178;2023-05-07T06:42:07;5.90;84.00
64226;DHT22;50545;56.064;26.178;2023-05-07T06:44:35;6.00;81.20
64226;DHT22;50545;56.064;26.178;2023-05-07T06:47:02;6.20;79.90
64226;DHT22;50545;56.064;26.178;2023-05-07T06:49:29;6.30;76.80
64226;DHT22;50545;56.064;26.178;2023-05-07T06:51:56;6.40;78.10
64226;DHT22;50545;56.064;26.178;2023-05-07T06:54:23;6.60;74.20
64226;DHT22;50545;56.064;26.178;2023-05-07T06:56:50;6.70;68.40
64226;DHT22;50545;56.064;26.178;2023-05-07T06:59:17;6.80;70.10
64226;DHT22;50545;56.064;26.178;2023-05-07T07:01:46;7.00;71.00
64226;DHT22;50545;56.064;26.178;2023-05-07T07:04:13;7.10;63.10
64226;DHT22;50545;56.064;26.178;2023-05-07T07:06:40;7.20;63.60
64226;DHT22;50545;56.064;26.178;2023-05-07T07:09:08;7.30;62.00
64226;DHT22;50545;56.064;26.178;2023-05-07T07:11:35;7.40;58.80
64226;DHT22;50545;56.064;26.178;2023-05-07T07:14:02;7.50;58.90
64226;DHT22;50545;56.064;26.178;2023-05-07T07:16:29;7.60;63.20
64226;DHT22;50545;56.064;26.178;2023-05-07T07:18:56;7.70;54.00
64226;DHT22;50545;56.064;26.178;2023-05-07T07:21:24;7.70;57.10
64226;DHT22;50545;56.064;26.178;2023-05-07T07:23:51;7.80;55.30
64226;DHT22;50545;56.064;26.178;2023-05-07T07:26:18;7.90;55.90
64226;DHT22;50545;56.064;26.178;2023-05-07T07:28:46;8.10;55.50
64226;DHT22;50545;56.064;26.178;2023-05-07T07:31:13;8.20;57.80
64226;DHT22;50545;56.064;26.178;2023-05-07T07:33:41;8.30;53.20
64226;DHT22;50545;56.064;26.178;2023-05-07T07:36:09;8.30;55.80
64226;DHT22;50545;56.064;26.178;2023-05-07T07:38:37;8.40;51.70
64226;DHT22;50545;56.064;26.178;2023-05-07T07:41:04;8.50;53.30
64226;DHT22;50545;56.064;26.178;2023-05-07T07:43:31;8.70;56.40
64226;DHT22;50545;56.064;26.178;2023-05-07T07:45:58;8.80;53.20
64226;DHT22;50545;56.064;26.178;2023-05-07T07:48:25;8.90;50.10
64226;DHT22;50545;56.064;26.178;2023-05-07T07:50:52;9.00;54.50
64226;DHT22;50545;56.064;26.178;2023-05-07T07:53:20;9.20;55.00
64226;DHT22;50545;56.064;26.178;2023-05-07T07:55:47;9.30;52.80
64226;DHT22;50545;56.064;26.178;2023-05-07T07:58:14;9.40;49.80
64226;DHT22;50545;56.064;26.178;2023-05-07T08:00:41;9.50;48.20
64226;DHT22;50545;56.064;26.178;2023-05-07T08:03:11;9.50;46.60
64226;DHT22;50545;56.064;26.178;2023-05-07T08:05:38;9.50;44.60
64226;DHT22;50545;56.064;26.178;2023-05-07T08:08:06;9.40;46.30
64226;DHT22;50545;56.064;26.178;2023-05-07T08:10:33;9.30;42.90
64226;DHT22;50545;56.064;26.178;2023-05-07T08:13:01;9.30;45.60
64226;DHT22;50545;56.064;26.178;2023-05-07T08:15:31;9.40;46.70
64226;DHT22;50545;56.064;26.178;2023-05-07T08:17:58;9.50;49.60
64226;DHT22;50545;56.064;26.178;2023-05-07T08:20:27;9.60;48.00
64226;DHT22;50545;56.064;26.178;2023-05-07T08:22:55;9.70;48.70
64226;DHT22;50545;56.064;26.178;2023-05-07T08:25:22;9.90;51.80
64226;DHT22;50545;56.064;26.178;2023-05-07T08:27:49;10.10;49.60
64226;DHT22;50545;56.064;26.178;2023-05-07T08:30:16;10.20;52.10
64226;DHT22;50545;56.064;26.178;2023-05-07T08:32:44;10.40;49.20
64226;DHT22;50545;56.064;26.178;2023-05-07T08:35:11;10.50;51.40
64226;DHT22;50545;56.064;26.178;2023-05-07T08:37:38;10.70;52.60
64226;DHT22;50545;56.064;26.178;2023-05-07T08:40:06;10.90;46.40
64226;DHT22;50545;56.064;26.178;2023-05-07T08:42:38;11.00;43.80
64226;DHT22;50545;56.064;26.178;2023-05-07T08:45:10;11.00;42.90
64226;DHT22;50545;56.064;26.178;2023-05-07T08:47:44;10.90;41.10
64226;DHT22;50545;56.064;26.178;2023-05-07T08:50:14;10.70;46.10
64226;DHT22;50545;56.064;26.178;2023-05-07T08:52:41;10.70;46.20
64226;DHT22;50545;56.064;26.178;2023-05-07T08:55:09;10.80;46.90
64226;DHT22;50545;56.064;26.178;2023-05-07T08:57:37;11.00;45.90
64226;DHT22;50545;56.064;26.178;2023-05-07T09:00:06;11.20;49.90
64226;DHT22;50545;56.064;26.178;2023-05-07T09:02:37;11.40;44.80
64226;DHT22;50545;56.064;26.178;2023-05-07T09:05:05;11.40;44.60
64226;DHT22;50545;56.064;26.178;2023-05-07T09:07:32;11.40;45.00
64226;DHT22;50545;56.064;26.178;2023-05-07T09:10:04;11.50;42.90
64226;DHT22;50545;56.064;26.178;2023-05-07T09:12:32;11.60;46.80
64226;DHT22;50545;56.064;26.178;2023-05-07T09:14:59;11.80;46.80
64226;DHT22;50545;56.064;26.178;2023-05-07T09:17:27;12.00;45.90
64226;DHT22;50545;56.064;26.178;2023-05-07T09:19:54;12.00;48.90
64226;DHT22;50545;56.064;26.178;2023-05-07T09:22:22;12.10;47.60
64226;DHT22;50545;56.064;26.178;2023-05-07T09:24:50;12.20;45.70
64226;DHT22;50545;56.064;26.178;2023-05-07T09:27:17;12.30;49.50
64226;DHT22;50545;56.064;26.178;2023-05-07T09:29:44;12.50;48.50
64226;DHT22;50545;56.064;26.178;2023-05-07T09:32:12;12.70;48.30
64226;DHT22;50545;56.064;26.178;2023-05-07T09:34:41;12.90;44.60
64226;DHT22;50545;56.064;26.178;2023-05-07T09:37:08;12.90;42.40
64226;DHT22;50545;56.064;26.178;2023-05-07T09:39:43;13.00;41.60
64226;DHT22;50545;56.064;26.178;2023-05-07T09:42:11;13.00;45.90
64226;DHT22;50545;56.064;26.178;2023-05-07T09:44:39;13.00;47.90
64226;DHT22;50545;56.064;26.178;2023-05-07T09:47:07;13.10;41.40
64226;DHT22;50545;56.064;26.178;2023-05-07T09:49:36;13.30;45.40
64226;DHT22;50545;56.064;26.178;2023-05-07T09:52:05;13.40;41.10
64226;DHT22;50545;56.064;26.178;2023-05-07T09:54:37;13.50;44.10
64226;DHT22;50545;56.064;26.178;2023-05-07T09:57:11;13.50;43.90
64226;DHT22;50545;56.064;26.178;2023-05-07T09:59:43;13.60;40.90
64226;DHT22;50545;56.064;26.178;2023-05-07T10:02:11;13.50;39.50
64226;DHT22;50545;56.064;26.178;2023-05-07T10:04:39;13.50;46.80
64226;DHT22;50545;56.064;26.178;2023-05-07T10:07:07;13.60;41.40
64226;DHT22;50545;56.064;26.178;2023-05-07T10:09:36;13.70;38.60
64226;DHT22;50545;56.064;26.178;2023-05-07T10:12:06;13.70;37.10
64226;DHT22;50545;56.064;26.178;2023-05-07T10:14:33;13.60;36.70
64226;DHT22;50545;56.064;26.178;2023-05-07T10:17:02;13.60;42.40
64226;DHT22;50545;56.064;26.178;2023-05-07T10:19:31;13.70;39.10
64226;DHT22;50545;56.064;26.178;2023-05-07T10:22:04;13.80;42.60
64226;DHT22;50545;56.064;26.178;2023-05-07T10:24:33;13.90;43.90
64226;DHT22;50545;56.064;26.178;2023-05-07T10:27:06;14.10;42.50
64226;DHT22;50545;56.064;26.178;2023-05-07T10:35:02;14.30;37.90
64226;DHT22;50545;56.064;26.178;2023-05-07T10:37:30;14.40;36.50
64226;DHT22;50545;56.064;26.178;2023-05-07T10:39:57;14.40;40.40
64226;DHT22;50545;56.064;26.178;2023-05-07T10:42:25;14.20;37.80
64226;DHT22;50545;56.064;26.178;2023-05-07T10:44:52;14.10;43.60
64226;DHT22;50545;56.064;26.178;2023-05-07T10:47:19;14.20;45.50
64226;DHT22;50545;56.064;26.178;2023-05-07T10:52:21;14.10;47.10
64226;DHT22;50545;56.064;26.178;2023-05-07T10:57:41;14.40;42.30
64226;DHT22;50545;56.064;26.178;2023-05-07T11:03:05;14.30;39.10
64226;DHT22;50545;56.064;26.178;2023-05-07T11:05:34;14.40;39.00
64226;DHT22;50545;56.064;26.178;2023-05-07T11:08:05;14.60;43.70
64226;DHT22;50545;56.064;26.178;2023-05-07T11:10:53;14.90;40.90
64226;DHT22;50545;56.064;26.178;2023-05-07T11:13:43;15.10;36.00
64226;DHT22;50545;56.064;26.178;2023-05-07T11:16:21;15.10;35.40
64226;DHT22;50545;56.064;26.178;2023-05-07T11:18:56;15.00;38.30
64226;DHT22;50545;56.064;26.178;2023-05-07T11:21:37;15.00;39.50
64226;DHT22;50545;56.064;26.178;2023-05-07T11:24:06;15.10;39.60
64226;DHT22;50545;56.064;26.178;2023-05-07T11:26:48;15.20;38.70
64226;DHT22;50545;56.064;26.178;2023-05-07T11:29:25;15.20;36.60
64226;DHT22;50545;56.064;26.178;2023-05-07T11:31:54;15.30;39.20
64226;DHT22;50545;56.064;26.178;2023-05-07T11:34:23;15.40;35.00
64226;DHT22;50545;56.064;26.178;2023-05-07T11:36:51;15.50;39.70
64226;DHT22;50545;56.064;26.178;2023-05-07T11:39:32;15.50;38.20
64226;DHT22;50545;56.064;26.178;2023-05-07T11:42:00;15.50;36.50
64226;DHT22;50545;56.064;26.178;2023-05-07T11:45:00;15.50;41.80
64226;DHT22;50545;56.064;26.178;2023-05-07T11:47:30;15.60;38.00
64226;DHT22;50545;56.064;26.178;2023-05-07T11:50:05;15.70;35.60
64226;DHT22;50545;56.064;26.178;2023-05-07T11:52:33;15.60;38.30
64226;DHT22;50545;56.064;26.178;2023-05-07T11:55:02;15.70;37.20
64226;DHT22;50545;56.064;26.178;2023-05-07T11:57:30;15.80;34.10
64226;DHT22;50545;56.064;26.178;2023-05-07T12:00:00;15.90;36.00
64226;DHT22;50545;56.064;26.178;2023-05-07T12:02:29;15.80;40.30
64226;DHT22;50545;56.064;26.178;2023-05-07T12:04:56;15.90;41.40
64226;DHT22;50545;56.064;26.178;2023-05-07T12:07:24;15.90;40.30
64226;DHT22;50545;56.064;26.178;2023-05-07T12:09:52;15.80;38.40
64226;DHT22;50545;56.064;26.178;2023-05-07T12:12:20;15.70;39.20
64226;DHT22;50545;56.064;26.178;2023-05-07T12:14:48;15.70;36.60
64226;DHT22;50545;56.064;26.178;2023-05-07T12:17:16;15.80;35.10
64226;DHT22;50545;56.064;26.178;2023-05-07T12:19:44;16.10;39.50
64226;DHT22;50545;56.064;26.178;2023-05-07T12:22:12;16.30;37.00
64226;DHT22;50545;56.064;26.178;2023-05-07T12:24:58;16.40;33.60
64226;DHT22;50545;56.064;26.178;2023-05-07T12:27:26;16.50;38.60
64226;DHT22;50545;56.064;26.178;2023-05-07T12:29:53;16.60;38.20
64226;DHT22;50545;56.064;26.178;2023-05-07T12:32:21;16.50;35.40
64226;DHT22;50545;56.064;26.178;2023-05-07T12:34:52;16.70;35.80
64226;DHT22;50545;56.064;26.178;2023-05-07T12:37:27;17.00;35.80
64226;DHT22;50545;56.064;26.178;2023-05-07T12:40:10;17.20;32.70
64226;DHT22;50545;56.064;26.178;2023-05-07T12:42:40;17.50;36.30
64226;DHT22;50545;56.064;26.178;2023-05-07T12:45:11;17.60;35.00
64226;DHT22;50545;56.064;26.178;2023-05-07T12:47:46;17.80;30.90
64226;DHT22;50545;56.064;26.178;2023-05-07T12:50:16;18.10;34.00
64226;DHT22;50545;56.064;26.178;2023-05-07T12:52:45;18.30;32.60
64226;DHT22;50545;56.064;26.178;2023-05-07T12:55:14;18.70;30.20
64226;DHT22;50545;56.064;26.178;2023-05-07T12:57:48;18.90;31.10
64226;DHT22;50545;56.064;26.178;2023-05-07T13:00:16;19.00;33.20
64226;DHT22;50545;56.064;26.178;2023-05-07T13:02:44;18.70;33.70
64226;DHT22;50545;56.064;26.178;2023-05-07T13:05:12;18.80;37.80
64226;DHT22;50545;56.064;26.178;2023-05-07T13:07:40;19.00;31.10
64226;DHT22;50545;56.064;26.178;2023-05-07T13:10:09;19.20;31.30
64226;DHT22;50545;56.064;26.178;2023-05-07T13:12:36;19.40;29.60
64226;DHT22;50545;56.064;26.178;2023-05-07T13:15:04;19.60;29.90
64226;DHT22;50545;56.064;26.178;2023-05-07T13:17:31;19.50;29.90
64226;DHT22;50545;56.064;26.178;2023-05-07T13:19:59;19.40;33.90
64226;DHT22;50545;56.064;26.178;2023-05-07T13:22:26;19.20;32.00
64226;DHT22;50545;56.064;26.178;2023-05-07T13:24:53;19.30;32.20
64226;DHT22;50545;56.064;26.178;2023-05-07T13:27:20;19.30;32.70
64226;DHT22;50545;56.064;26.178;2023-05-07T13:29:48;19.50;34.00
64226;DHT22;50545;56.064;26.178;2023-05-07T13:32:15;19.80;34.20
64226;DHT22;50545;56.064;26.178;2023-05-07T13:34:42;20.00;32.10
64226;DHT22;50545;56.064;26.178;2023-05-07T13:37:09;20.20;31.00
64226;DHT22;50545;56.064;26.178;2023-05-07T13:39:38;20.30;30.90
64226;DHT22;50545;56.064;26.178;2023-05-07T13:42:05;19.70;30.70
64226;DHT22;50545;56.064;26.178;2023-05-07T13:44:32;19.40;31.80
64226;DHT22;50545;56.064;26.178;2023-05-07T13:47:00;19.40;33.50
64226;DHT22;50545;56.064;26.178;2023-05-07T13:49:27;19.50;32.00
64226;DHT22;50545;56.064;26.178;2023-05-07T13:51:55;19.90;33.50
64226;DHT22;50545;56.064;26.178;2023-05-07T13:54:22;20.40;32.20
64226;DHT22;50545;56.064;26.178;2023-05-07T13:56:50;20.60;31.70
64226;DHT22;50545;56.064;26.178;2023-05-07T13:59:18;20.40;28.20
64226;DHT22;50545;56.064;26.178;2023-05-07T14:01:45;20.30;31.40
64226;DHT22;50545;56.064;26.178;2023-05-07T14:04:12;20.40;30.20
64226;DHT22;50545;56.064;26.178;2023-05-07T14:06:39;20.80;29.60
64226;DHT22;50545;56.064;26.178;2023-05-07T14:09:07;21.00;29.80
64226;DHT22;50545;56.064;26.178;2023-05-07T14:11:34;21.20;30.80
64226;DHT22;50545;56.064;26.178;2023-05-07T14:14:02;21.40;29.50
64226;DHT22;50545;56.064;26.178;2023-05-07T14:16:29;21.60;30.60
64226;DHT22;50545;56.064;26.178;2023-05-07T14:18:56;21.80;30.00
64226;DHT22;50545;56.064;26.178;2023-05-07T14:21:24;21.40;27.40
64226;DHT22;50545;56.064;26.178;2023-05-07T14:23:52;21.10;26.60
64226;DHT22;50545;56.064;26.178;2023-05-07T14:26:19;20.80;27.50
64226;DHT22;50545;56.064;26.178;2023-05-07T14:28:47;20.80;26.90
64226;DHT22;50545;56.064;26.178;2023-05-07T14:31:14;20.80;29.10
64226;DHT22;50545;56.064;26.178;2023-05-07T14:33:42;20.70;27.30
64226;DHT22;50545;56.064;26.178;2023-05-07T14:36:09;20.50;28.20
64226;DHT22;50545;56.064;26.178;2023-05-07T14:38:36;20.60;28.00
64226;DHT22;50545;56.064;26.178;2023-05-07T14:41:03;20.60;27.40
64226;DHT22;50545;56.064;26.178;2023-05-07T14:43:31;20.40;27.10
64226;DHT22;50545;56.064;26.178;2023-05-07T14:45:58;20.20;29.40
64226;DHT22;50545;56.064;26.178;2023-05-07T14:48:26;20.20;29.40
64226;DHT22;50545;56.064;26.178;2023-05-07T14:50:53;20.20;31.70
64226;DHT22;50545;56.064;26.178;2023-05-07T14:53:20;20.40;29.40
64226;DHT22;50545;56.064;26.178;2023-05-07T14:55:48;20.60;31.20
64226;DHT22;50545;56.064;26.178;2023-05-07T14:58:15;20.90;29.90
64226;DHT22;50545;56.064;26.178;2023-05-07T15:00:43;20.80;29.60
64226;DHT22;50545;56.064;26.178;2023-05-07T15:03:10;21.00;31.30
64226;DHT22;50545;56.064;26.178;2023-05-07T15:05:38;21.00;29.80
64226;DHT22;50545;56.064;26.178;2023-05-07T15:08:05;21.20;28.50
64226;DHT22;50545;56.064;26.178;2023-05-07T15:10:35;21.50;28.80
64226;DHT22;50545;56.064;26.178;2023-05-07T15:13:09;21.80;28.20
64226;DHT22;50545;56.064;26.178;2023-05-07T15:15:41;22.00;27.40
64226;DHT22;50545;56.064;26.178;2023-05-07T15:18:10;22.20;26.70
64226;DHT22;50545;56.064;26.178;2023-05-07T15:20:39;22.20;28.30
64226;DHT22;50545;56.064;26.178;2023-05-07T15:23:08;22.30;28.50
64226;DHT22;50545;56.064;26.178;2023-05-07T15:25:42;22.30;28.60
64226;DHT22;50545;56.064;26.178;2023-05-07T15:28:09;22.40;27.10
64226;DHT22;50545;56.064;26.178;2023-05-07T15:30:36;22.40;27.90
64226;DHT22;50545;56.064;26.178;2023-05-07T15:33:04;22.50;26.80
64226;DHT22;50545;56.064;26.178;2023-05-07T15:35:31;22.70;27.80
64226;DHT22;50545;56.064;26.178;2023-05-07T15:37:58;22.90;27.60
64226;DHT22;50545;56.064;26.178;2023-05-07T15:40:25;22.90;26.30